Time;durP1;ratioP1;P1;durP2;ratioP2;P2;SDS_P1;SDS_P2;PMS_P1;PMS_P2;Temp;Humidity;BMP_temperature;BMP_pressure;BME280_temperature;BME280_humidity;BME280_pressure;Samples;Min_cycle;Max_cycle;Signal;HPM_P1;HPM_P2
2023/12/12 00:00:09;;;;;;;1.97;1.87;;;;;;;;;;5073891;28;20538;-61
2023/12/12 00:02:35;;;;;;;2.23;1.90;;;;;;;;;;5074095;28;20535;-61
2023/12/12 00:05:02;;;;;;;1.80;1.70;;;;;;;;;;5074261;28;20542;-61
2023/12/12 00:07:30;;;;;;;1.80;1.70;;;;;;;;;;5073965;28;20854;-61
2023/12/12 00:09:57;;;;;;;1.93;1.83;;;;;;;;;;5074116;28;20538;-61
2023/12/12 00:12:24;;;;;;;2.27;2.00;;;;;;;;;;5073842;28;20589;-61
2023/12/12 00:14:51;;;;;;;1.60;1.50;;;;;;;;;;5073941;28;20455;-61
2023/12/12 00:17:18;;;;;;;3.80;1.77;;;;;;;;;;5073813;28;20538;-61
2023/12/12 00:19:45;;;;;;;2.73;2.10;;;;;;;;;;5074027;28;20448;-61
2023/12/12 00:22:13;;;;;;;2.10;2.00;;;;;;;;;;5073644;28;20530;-61
2023/12/12 00:24:41;;;;;;;4.60;2.23;;;;;;;;;;5073609;28;20534;-61
2023/12/12 00:27:08;;;;;;;2.23;2.03;;;;;;;;;;5073680;28;20546;-61
2023/12/12 00:29:36;;;;;;;1.93;1.83;;;;;;;;;;5073656;28;20530;-61
2023/12/12 00:32:03;;;;;;;2.27;2.07;;;;;;;;;;5073472;28;20487;-61
2023/12/12 00:34:30;;;;;;;3.87;2.57;;;;;;;;;;5073252;28;21026;-61
2023/12/12 00:36:57;;;;;;;2.13;1.93;;;;;;;;;;5073399;28;20540;-61
2023/12/12 00:39:24;;;;;;;3.03;2.10;;;;;;;;;;5073380;28;20440;-61
2023/12/12 00:41:52;;;;;;;2.50;2.30;;;;;;;;;;5073197;28;20991;-61
2023/12/12 00:44:19;;;;;;;2.23;2.10;;;;;;;;;;5073434;28;20531;-61
2023/12/12 00:46:46;;;;;;;2.20;2.10;;;;;;;;;;5073310;28;20920;-61
2023/12/12 00:49:13;;;;;;;2.60;2.40;;;;;;;;;;5072719;28;21026;-61
2023/12/12 00:51:40;;;;;;;2.03;1.90;;;;;;;;;;5072969;28;20471;-61
2023/12/12 00:54:07;;;;;;;2.10;2.00;;;;;;;;;;5073058;28;20475;-61
2023/12/12 00:56:34;;;;;;;2.50;2.30;;;;;;;;;;5073131;28;20554;-61
2023/12/12 00:59:02;;;;;;;2.97;2.20;;;;;;;;;;5072988;28;20976;-61
2023/12/12 01:01:29;;;;;;;2.23;2.10;;;;;;;;;;5073107;28;20450;-61
2023/12/12 01:03:56;;;;;;;2.57;2.37;;;;;;;;;;5073115;28;20530;-61
2023/12/12 01:06:23;;;;;;;3.07;2.00;;;;;;;;;;5072894;28;20939;-60
2023/12/12 01:08:50;;;;;;;1.97;1.87;;;;;;;;;;5072852;28;20451;-61
2023/12/12 01:11:17;;;;;;;3.50;2.37;;;;;;;;;;5073143;28;20550;-61
2023/12/12 01:13:44;;;;;;;5.10;2.47;;;;;;;;;;5073046;28;20489;-61
2023/12/12 01:16:12;;;;;;;2.03;1.93;;;;;;;;;;5072959;28;20872;-61
2023/12/12 01:18:39;;;;;;;2.50;2.03;;;;;;;;;;5072794;28;21042;-61
2023/12/12 01:21:07;;;;;;;5.40;2.40;;;;;;;;;;5072815;28;20526;-61
2023/12/12 01:23:47;;;;;;;2.27;2.17;;;;;;;;;;5072708;28;21017;-61
2023/12/12 01:26:14;;;;;;;2.73;2.10;;;;;;;;;;5072944;28;20530;-61
2023/12/12 01:28:41;;;;;;;2.30;2.17;;;;;;;;;;5072805;28;20878;-61
2023/12/12 01:31:08;;;;;;;2.50;2.27;;;;;;;;;;5073048;28;20435;-61
2023/12/12 01:33:36;;;;;;;2.47;2.27;;;;;;;;;;5072944;28;20486;-60
2023/12/12 01:36:03;;;;;;;2.00;1.90;;;;;;;;;;5073146;28;20522;-60
2023/12/12 01:38:31;;;;;;;2.30;2.10;;;;;;;;;;5072784;28;20866;-60
2023/12/12 01:40:58;;;;;;;1.87;1.77;;;;;;;;;;5072748;28;20534;-61
2023/12/12 01:43:25;;;;;;;2.53;2.10;;;;;;;;;;5072709;28;20443;-61
2023/12/12 01:45:52;;;;;;;2.13;2.03;;;;;;;;;;5072905;28;20530;-61
2023/12/12 01:48:20;;;;;;;2.33;1.90;;;;;;;;;;5072588;28;20871;-61
2023/12/12 01:50:48;;;;;;;2.10;2.00;;;;;;;;;;5072762;28;20446;-61
2023/12/12 01:53:15;;;;;;;2.50;2.30;;;;;;;;;;5072605;28;20483;-61
2023/12/12 01:55:43;;;;;;;2.60;2.23;;;;;;;;;;5072568;28;20550;-61
2023/12/12 01:58:10;;;;;;;2.37;2.17;;;;;;;;;;5072554;28;20447;-61
2023/12/12 02:00:37;;;;;;;2.27;2.07;;;;;;;;;;5072805;28;20526;-61
2023/12/12 02:03:04;;;;;;;2.30;2.20;;;;;;;;;;5076210;28;20449;-61
2023/12/12 02:05:31;;;;;;;1.93;1.83;;;;;;;;;;5076351;28;20532;-61
2023/12/12 02:08:00;;;;;;;2.70;2.50;;;;;;;;;;5076466;28;20458;-60
2023/12/12 02:10:27;;;;;;;2.20;2.00;;;;;;;;;;5076413;28;20454;-61
2023/12/12 02:12:54;;;;;;;2.60;2.40;;;;;;;;;;5076048;28;20475;-61
2023/12/12 02:15:21;;;;;;;2.80;2.57;;;;;;;;;;5075988;28;20539;-60
2023/12/12 02:17:48;;;;;;;2.00;1.80;;;;;;;;;;5076248;28;20881;-61
2023/12/12 02:20:15;;;;;;;2.70;2.10;;;;;;;;;;5076338;28;20538;-61
2023/12/12 02:22:44;;;;;;;2.30;2.10;;;;;;;;;;5075985;28;20534;-60
2023/12/12 02:25:11;;;;;;;3.40;2.37;;;;;;;;;;5075870;28;20446;-61
2023/12/12 02:27:38;;;;;;;2.30;2.10;;;;;;;;;;5075784;28;20546;-61
2023/12/12 02:30:07;;;;;;;2.47;2.30;;;;;;;;;;5075686;28;20451;-61
2023/12/12 02:32:34;;;;;;;5.20;2.40;;;;;;;;;;5075814;28;20552;-61
2023/12/12 02:35:01;;;;;;;2.47;2.27;;;;;;;;;;5076024;28;20799;-61
2023/12/12 02:37:28;;;;;;;2.70;2.50;;;;;;;;;;5075626;28;20544;-60
2023/12/12 02:39:56;;;;;;;2.40;2.20;;;;;;;;;;5075691;28;20448;-61
2023/12/12 02:42:23;;;;;;;3.17;2.87;;;;;;;;;;5075738;28;20542;-61
2023/12/12 02:44:50;;;;;;;3.83;2.40;;;;;;;;;;5075429;28;20451;-61
2023/12/12 02:47:17;;;;;;;2.57;2.23;;;;;;;;;;5075602;28;20454;-61
2023/12/12 02:49:44;;;;;;;2.67;2.47;;;;;;;;;;5075526;28;20444;-60
2023/12/12 02:52:11;;;;;;;2.70;2.50;;;;;;;;;;5075355;28;20477;-61
2023/12/12 02:54:38;;;;;;;2.57;2.37;;;;;;;;;;5075104;28;20477;-60
2023/12/12 02:57:07;;;;;;;2.00;1.90;;;;;;;;;;5075261;28;20535;-61
2023/12/12 02:59:34;;;;;;;4.67;2.50;;;;;;;;;;5075662;28;20454;-61
2023/12/12 03:02:01;;;;;;;2.43;2.23;;;;;;;;;;5075054;28;20930;-61
2023/12/12 03:04:28;;;;;;;2.30;1.93;;;;;;;;;;5075174;28;20542;-61
2023/12/12 03:06:55;;;;;;;2.40;2.20;;;;;;;;;;5075114;28;20450;-61
2023/12/12 03:09:22;;;;;;;2.30;2.20;;;;;;;;;;5075036;28;20874;-61
2023/12/12 03:11:51;;;;;;;2.90;2.70;;;;;;;;;;5074876;28;20546;-61
2023/12/12 03:14:20;;;;;;;3.07;2.87;;;;;;;;;;5074134;28;21053;-61
2023/12/12 03:16:47;;;;;;;3.90;3.30;;;;;;;;;;5074886;28;21010;-60
2023/12/12 03:19:14;;;;;;;6.93;4.40;;;;;;;;;;5074923;28;20475;-61
2023/12/12 03:21:41;;;;;;;7.57;5.50;;;;;;;;;;5074843;28;20439;-61
2023/12/12 03:24:08;;;;;;;5.53;4.70;;;;;;;;;;5074631;28;20446;-60
2023/12/12 03:26:35;;;;;;;8.90;5.07;;;;;;;;;;5074905;28;21010;-61
2023/12/12 03:29:02;;;;;;;4.77;4.30;;;;;;;;;;5074750;28;20799;-61
2023/12/12 03:31:30;;;;;;;4.83;4.40;;;;;;;;;;5074660;28;20534;-61
2023/12/12 03:33:57;;;;;;;3.50;3.20;;;;;;;;;;5074578;28;20483;-60
2023/12/12 03:36:24;;;;;;;3.30;3.00;;;;;;;;;;5074534;28;20535;-61
2023/12/12 03:38:51;;;;;;;3.67;3.13;;;;;;;;;;5074417;28;20535;-60
2023/12/12 03:41:18;;;;;;;3.83;3.50;;;;;;;;;;5074540;28;20443;-60
2023/12/12 03:43:45;;;;;;;3.37;3.07;;;;;;;;;;5074579;28;20454;-60
2023/12/12 03:46:12;;;;;;;4.23;3.93;;;;;;;;;;5074418;28;20833;-60
2023/12/12 03:48:40;;;;;;;3.97;3.67;;;;;;;;;;5074282;28;20780;-61
2023/12/12 03:51:09;;;;;;;4.53;3.07;;;;;;;;;;5074189;28;20450;-60
2023/12/12 03:53:36;;;;;;;3.90;3.60;;;;;;;;;;5073922;28;20478;-61
2023/12/12 03:56:03;;;;;;;3.60;3.40;;;;;;;;;;5073998;28;20478;-61
2023/12/12 03:58:30;;;;;;;3.43;3.13;;;;;;;;;;5074166;28;20451;-60
2023/12/12 04:00:57;;;;;;;4.97;3.53;;;;;;;;;;5074113;28;20538;-61
2023/12/12 04:03:24;;;;;;;3.70;3.40;;;;;;;;;;5074019;28;20442;-60
2023/12/12 04:05:53;;;;;;;3.17;2.97;;;;;;;;;;5073846;28;20471;-61
2023/12/12 04:08:20;;;;;;;3.60;3.30;;;;;;;;;;5074048;28;20440;-61
2023/12/12 04:10:46;;;;;;;3.17;2.97;;;;;;;;;;5073929;28;20439;-60
2023/12/12 04:13:13;;;;;;;3.40;3.20;;;;;;;;;;5073795;28;20585;-61
2023/12/12 04:15:40;;;;;;;4.50;3.67;;;;;;;;;;5073765;28;20526;-60
2023/12/12 04:18:07;;;;;;;3.07;2.87;;;;;;;;;;5073897;28;20444;-61
2023/12/12 04:20:33;;;;;;;2.20;2.10;;;;;;;;;;5073590;28;20440;-61
2023/12/12 04:23:02;;;;;;;2.20;2.10;;;;;;;;;;5073382;28;20451;-61
2023/12/12 04:25:29;;;;;;;2.90;2.33;;;;;;;;;;5072218;28;20884;-61
2023/12/12 04:27:55;;;;;;;2.00;1.90;;;;;;;;;;5073101;28;20526;-61
2023/12/12 04:30:22;;;;;;;2.80;1.90;;;;;;;;;;5072848;28;20538;-61
2023/12/12 04:32:49;;;;;;;2.03;1.90;;;;;;;;;;5072526;28;21048;-61
2023/12/12 04:35:19;;;;;;;2.17;1.50;;;;;;;;;;5072957;28;20534;-61
2023/12/12 04:37:46;;;;;;;1.40;1.30;;;;;;;;;;5072975;28;20451;-61
2023/12/12 04:40:15;;;;;;;1.87;1.53;;;;;;;;;;5072797;28;20444;-60
2023/12/12 04:42:42;;;;;;;1.60;1.50;;;;;;;;;;5072726;28;20443;-61
2023/12/12 04:45:09;;;;;;;1.70;1.60;;;;;;;;;;5072998;28;20474;-60
2023/12/12 04:47:36;;;;;;;2.07;1.87;;;;;;;;;;5073106;28;20798;-61
2023/12/12 04:50:03;;;;;;;1.40;1.30;;;;;;;;;;5073172;28;20452;-60
2023/12/12 04:52:30;;;;;;;2.07;1.87;;;;;;;;;;5073130;28;20558;-60
2023/12/12 04:54:57;;;;;;;2.17;1.97;;;;;;;;;;5073203;28;20907;-61
2023/12/12 04:57:26;;;;;;;2.60;2.00;;;;;;;;;;5073077;28;20451;-61
2023/12/12 04:59:53;;;;;;;3.10;2.30;;;;;;;;;;5073073;28;20440;-60
2023/12/12 05:02:21;;;;;;;4.43;2.20;;;;;;;;;;5072945;28;20851;-60
2023/12/12 05:04:48;;;;;;;2.67;2.47;;;;;;;;;;5073127;28;20557;-60
2023/12/12 05:07:16;;;;;;;2.73;2.40;;;;;;;;;;5073111;28;20443;-61
2023/12/12 05:09:43;;;;;;;2.20;2.00;;;;;;;;;;5072965;28;20858;-60
2023/12/12 05:12:10;;;;;;;2.67;2.30;;;;;;;;;;5072923;28;20447;-60
2023/12/12 05:14:39;;;;;;;2.70;2.40;;;;;;;;;;5072701;28;20475;-60
2023/12/12 05:17:06;;;;;;;3.30;2.27;;;;;;;;;;5073036;28;20449;-60
2023/12/12 05:19:32;;;;;;;2.17;1.97;;;;;;;;;;5072976;28;20455;-61
2023/12/12 05:21:59;;;;;;;4.00;3.40;;;;;;;;;;5072852;28;20480;-60
2023/12/12 05:24:26;;;;;;;5.03;2.97;;;;;;;;;;5072866;28;20807;-60
2023/12/12 05:26:53;;;;;;;4.13;2.70;;;;;;;;;;5072771;28;20450;-61
2023/12/12 05:29:20;;;;;;;3.10;2.20;;;;;;;;;;5072656;28;20450;-60
2023/12/12 05:31:48;;;;;;;2.50;2.17;;;;;;;;;;5072853;28;20458;-61
2023/12/12 05:34:15;;;;;;;3.10;2.20;;;;;;;;;;5072756;28;20485;-61
2023/12/12 05:36:42;;;;;;;6.67;3.00;;;;;;;;;;5074920;28;20449;-61
2023/12/12 05:39:10;;;;;;;5.73;3.00;;;;;;;;;;5076784;28;20450;-61
2023/12/12 05:41:37;;;;;;;2.43;2.07;;;;;;;;;;5076678;28;20451;-60
2023/12/12 05:44:05;;;;;;;4.40;2.73;;;;;;;;;;5076526;28;20922;-61
2023/12/12 05:46:32;;;;;;;2.10;1.87;;;;;;;;;;5076791;28;20451;-61
2023/12/12 05:49:00;;;;;;;2.13;1.73;;;;;;;;;;5076611;28;20806;-61
2023/12/12 05:51:27;;;;;;;2.23;1.90;;;;;;;;;;5076414;28;20439;-61
2023/12/12 05:53:54;;;;;;;5.90;2.20;;;;;;;;;;5076686;28;20479;-61
2023/12/12 05:56:21;;;;;;;2.60;2.00;;;;;;;;;;5076150;28;20839;-61
2023/12/12 05:58:49;;;;;;;2.73;2.37;;;;;;;;;;5076735;28;20443;-61
2023/12/12 06:01:17;;;;;;;3.30;2.30;;;;;;;;;;5076411;28;20477;-61
2023/12/12 06:03:45;;;;;;;2.70;2.47;;;;;;;;;;5076201;28;20439;-61
2023/12/12 06:06:13;;;;;;;2.53;2.33;;;;;;;;;;5076164;28;20447;-61
2023/12/12 06:08:40;;;;;;;5.93;1.77;;;;;;;;;;5076068;28;20834;-60
2023/12/12 06:11:07;;;;;;;6.90;3.90;;;;;;;;;;5075910;28;20947;-60
2023/12/12 06:13:34;;;;;;;2.20;1.77;;;;;;;;;;5076099;28;20486;-61
2023/12/12 06:16:01;;;;;;;2.70;1.80;;;;;;;;;;5076066;28;20561;-60
2023/12/12 06:18:27;;;;;;;2.37;2.17;;;;;;;;;;5076052;28;20440;-61
2023/12/12 06:20:54;;;;;;;8.63;2.13;;;;;;;;;;5075837;28;20435;-60
2023/12/12 06:23:23;;;;;;;3.10;1.97;;;;;;;;;;5075760;28;20872;-61
2023/12/12 06:25:50;;;;;;;1.83;1.73;;;;;;;;;;5076001;28;20444;-60
2023/12/12 06:28:17;;;;;;;4.23;2.30;;;;;;;;;;5075944;28;20539;-61
2023/12/12 06:30:43;;;;;;;2.23;2.03;;;;;;;;;;5075772;28;20534;-60
2023/12/12 06:33:10;;;;;;;2.00;1.80;;;;;;;;;;5075645;28;20534;-61
2023/12/12 06:35:37;;;;;;;2.57;2.00;;;;;;;;;;5075670;28;20453;-61
2023/12/12 06:38:04;;;;;;;4.43;2.47;;;;;;;;;;5075448;28;20999;-60
2023/12/12 06:40:33;;;;;;;3.43;2.43;;;;;;;;;;5075662;28;20799;-61
2023/12/12 06:43:00;;;;;;;2.63;1.83;;;;;;;;;;5075551;28;20542;-60
2023/12/12 06:45:27;;;;;;;3.00;1.67;;;;;;;;;;5075536;28;20449;-61
2023/12/12 06:47:54;;;;;;;6.57;1.90;;;;;;;;;;5074302;28;20526;-61
2023/12/12 06:50:21;;;;;;;3.50;2.00;;;;;;;;;;5075209;28;20443;-61
2023/12/12 06:52:48;;;;;;;4.90;2.47;;;;;;;;;;5075275;28;20526;-60
2023/12/12 06:55:17;;;;;;;2.50;2.27;;;;;;;;;;5075243;28;20994;-61
2023/12/12 06:57:45;;;;;;;2.73;2.50;;;;;;;;;;5075347;28;20505;-61
2023/12/12 07:00:13;;;;;;;2.63;2.43;;;;;;;;;;5075164;28;20799;-61
2023/12/12 07:02:40;;;;;;;3.20;2.87;;;;;;;;;;5075096;28;20529;-61
2023/12/12 07:05:07;;;;;;;6.40;2.73;;;;;;;;;;5075004;28;20462;-61
2023/12/12 07:07:34;;;;;;;3.97;2.53;;;;;;;;;;5075101;28;20446;-61
2023/12/12 07:10:06;;;;;;;2.83;2.40;;;;;;;;;;5075095;28;20471;-61
2023/12/12 07:12:33;;;;;;;7.23;3.13;;;;;;;;;;5074865;28;20439;-61
2023/12/12 07:15:01;;;;;;;3.67;2.60;;;;;;;;;;5074827;28;20514;-61
2023/12/12 07:17:28;;;;;;;2.20;2.10;;;;;;;;;;5074767;28;20534;-61
2023/12/12 07:19:55;;;;;;;4.70;3.00;;;;;;;;;;5074997;28;20470;-61
2023/12/12 07:22:22;;;;;;;6.07;3.00;;;;;;;;;;5074911;28;20935;-61
2023/12/12 07:24:49;;;;;;;5.47;3.10;;;;;;;;;;5074799;28;20538;-61
2023/12/12 07:27:16;;;;;;;9.00;3.80;;;;;;;;;;5074861;28;20449;-61
2023/12/12 07:29:43;;;;;;;3.20;2.80;;;;;;;;;;5074635;28;20455;-60
2023/12/12 07:32:11;;;;;;;3.57;3.20;;;;;;;;;;5074498;28;20454;-61
2023/12/12 07:34:38;;;;;;;4.47;3.60;;;;;;;;;;5074316;28;20994;-60
2023/12/12 07:37:05;;;;;;;6.23;3.50;;;;;;;;;;5074517;28;20450;-61
2023/12/12 07:39:32;;;;;;;4.47;3.13;;;;;;;;;;5074559;28;20941;-61
2023/12/12 07:41:59;;;;;;;6.13;3.50;;;;;;;;;;5074428;28;20450;-61
2023/12/12 07:44:26;;;;;;;5.90;3.40;;;;;;;;;;5074395;28;20538;-60
2023/12/12 07:46:53;;;;;;;9.10;4.73;;;;;;;;;;5074069;28;20799;-61
2023/12/12 07:49:22;;;;;;;11.37;5.63;;;;;;;;;;5074352;28;20450;-60
2023/12/12 07:51:49;;;;;;;8.10;4.90;;;;;;;;;;5074284;28;20534;-61
2023/12/12 07:54:17;;;;;;;5.60;4.83;;;;;;;;;;5073981;28;20898;-61
2023/12/12 07:56:44;;;;;;;11.53;7.10;;;;;;;;;;5073972;28;20530;-61
2023/12/12 07:59:11;;;;;;;7.20;4.20;;;;;;;;;;5073975;28;20482;-61
2023/12/12 08:01:39;;;;;;;5.23;4.83;;;;;;;;;;5074167;28;20542;-60
2023/12/12 08:04:06;;;;;;;12.90;6.87;;;;;;;;;;5074110;28;20469;-60
2023/12/12 08:06:34;;;;;;;13.90;12.43;;;;;;;;;;5073861;28;20443;-60
2023/12/12 08:09:02;;;;;;;13.77;11.17;;;;;;;;;;5073749;28;20431;-60
2023/12/12 08:11:30;;;;;;;10.37;7.87;;;;;;;;;;5073589;28;20450;-58
2023/12/12 08:13:56;;;;;;;12.07;7.30;;;;;;;;;;5073504;28;20854;-60
2023/12/12 08:16:25;;;;;;;10.30;7.20;;;;;;;;;;5073334;28;20653;-62
2023/12/12 08:18:52;;;;;;;5.83;4.80;;;;;;;;;;5073547;28;20617;-60
2023/12/12 08:21:20;;;;;;;5.97;5.47;;;;;;;;;;5073512;28;20542;-63
2023/12/12 08:23:48;;;;;;;10.90;4.30;;;;;;;;;;5073561;28;20509;-60
2023/12/12 08:26:15;;;;;;;6.50;4.93;;;;;;;;;;5073371;28;20454;-60
2023/12/12 08:28:42;;;;;;;7.50;5.17;;;;;;;;;;5073179;28;20973;-60
2023/12/12 08:31:09;;;;;;;7.20;4.10;;;;;;;;;;5073485;28;20538;-60
2023/12/12 08:33:36;;;;;;;8.87;6.53;;;;;;;;;;5073201;28;20534;-59
2023/12/12 08:36:03;;;;;;;9.67;5.27;;;;;;;;;;5073106;28;20930;-60
2023/12/12 08:38:30;;;;;;;13.80;6.90;;;;;;;;;;5072937;28;20832;-61
2023/12/12 08:40:59;;;;;;;9.10;6.63;;;;;;;;;;5072435;28;20451;-61
2023/12/12 08:43:25;;;;;;;9.37;5.73;;;;;;;;;;5073389;28;20538;-60
2023/12/12 08:45:54;;;;;;;9.67;5.80;;;;;;;;;;5073135;28;20483;-60
2023/12/12 08:48:21;;;;;;;8.30;6.20;;;;;;;;;;5073191;28;20876;-59
2023/12/12 08:50:50;;;;;;;16.50;8.30;;;;;;;;;;5073136;28;20447;-62
2023/12/12 08:53:17;;;;;;;5.20;3.97;;;;;;;;;;5072984;28;20439;-62
2023/12/12 08:55:45;;;;;;;8.20;4.07;;;;;;;;;;5072854;28;20493;-62
2023/12/12 08:58:13;;;;;;;3.67;3.30;;;;;;;;;;5073122;28;20447;-61
2023/12/12 09:00:41;;;;;;;5.00;3.57;;;;;;;;;;5073044;28;20530;-62
2023/12/12 09:03:08;;;;;;;3.60;3.30;;;;;;;;;;5072913;28;20534;-62
2023/12/12 09:05:36;;;;;;;3.83;3.20;;;;;;;;;;5072864;28;20455;-61
2023/12/12 09:08:03;;;;;;;7.17;4.50;;;;;;;;;;5072895;28;20492;-61
2023/12/12 09:10:30;;;;;;;5.23;3.23;;;;;;;;;;5072255;28;20444;-61
2023/12/12 09:12:56;;;;;;;6.00;3.70;;;;;;;;;;5073036;28;21018;-60
2023/12/12 09:15:25;;;;;;;5.90;4.37;;;;;;;;;;5072805;28;20482;-60
2023/12/12 09:17:52;;;;;;;10.23;6.10;;;;;;;;;;5072827;28;20538;-60
2023/12/12 09:20:19;;;;;;;8.53;6.53;;;;;;;;;;5072771;28;20551;-61
2023/12/12 09:22:45;;;;;;;9.13;5.60;;;;;;;;;;5072913;28;20916;-59
2023/12/12 09:25:12;;;;;;;9.13;6.97;;;;;;;;;;5072856;28;20601;-60
2023/12/12 09:27:39;;;;;;;9.73;4.70;;;;;;;;;;5072758;28;20526;-60
2023/12/12 09:30:07;;;;;;;7.07;3.53;;;;;;;;;;5072731;28;20538;-58
2023/12/12 09:32:35;;;;;;;22.23;15.83;;;;;;;;;;5072633;28;20447;-59
2023/12/12 09:35:03;;;;;;;4.63;3.70;;;;;;;;;;5072373;28;20471;-59
2023/12/12 09:37:31;;;;;;;3.63;3.33;;;;;;;;;;5072749;28;20505;-60
2023/12/12 09:39:58;;;;;;;11.33;4.47;;;;;;;;;;5072796;28;20489;-59
2023/12/12 09:42:25;;;;;;;8.80;3.97;;;;;;;;;;5072599;28;20539;-59
2023/12/12 09:44:58;;;;;;;6.03;3.20;;;;;;;;;;5072512;28;20530;-59
2023/12/12 09:47:25;;;;;;;3.53;2.73;;;;;;;;;;5072350;28;20439;-59
2023/12/12 09:49:55;;;;;;;6.40;3.33;;;;;;;;;;5072292;28;20446;-60
2023/12/12 09:52:22;;;;;;;5.90;3.67;;;;;;;;;;5072552;28;20483;-61
2023/12/12 09:54:50;;;;;;;8.00;4.70;;;;;;;;;;5072491;28;20482;-61
2023/12/12 09:57:18;;;;;;;3.40;3.10;;;;;;;;;;5072470;28;20470;-61
2023/12/12 09:59:44;;;;;;;4.13;2.93;;;;;;;;;;5072199;28;20543;-61
2023/12/12 10:02:15;;;;;;;3.30;3.00;;;;;;;;;;5072183;28;20547;-61
2023/12/12 10:04:43;;;;;;;3.70;2.73;;;;;;;;;;5072555;28;20452;-61
2023/12/12 10:07:13;;;;;;;5.27;3.10;;;;;;;;;;5072553;28;20451;-60
2023/12/12 10:09:40;;;;;;;4.70;2.90;;;;;;;;;;5072454;28;20538;-61
2023/12/12 10:12:07;;;;;;;4.97;3.40;;;;;;;;;;5072048;28;20782;-61
2023/12/12 10:14:36;;;;;;;6.10;3.10;;;;;;;;;;5071936;28;20554;-62
2023/12/12 10:17:04;;;;;;;3.00;2.60;;;;;;;;;;5072180;28;20447;-59
2023/12/12 10:19:31;;;;;;;4.23;3.00;;;;;;;;;;5072394;28;20538;-63
2023/12/12 10:22:01;;;;;;;3.87;3.50;;;;;;;;;;5073114;28;20450;-59
2023/12/12 10:24:29;;;;;;;3.17;2.80;;;;;;;;;;5075791;28;20447;-57
2023/12/12 10:26:56;;;;;;;2.60;2.40;;;;;;;;;;5075590;28;20558;-62
2023/12/12 10:29:23;;;;;;;4.80;2.83;;;;;;;;;;5075866;28;20454;-59
2023/12/12 10:31:51;;;;;;;5.60;2.60;;;;;;;;;;5076025;28;20534;-62
2023/12/12 10:34:19;;;;;;;4.10;2.90;;;;;;;;;;5075568;28;20451;-50
2023/12/12 10:36:48;;;;;;;5.33;2.03;;;;;;;;;;5075675;28;20439;-59
2023/12/12 10:39:16;;;;;;;2.27;2.07;;;;;;;;;;5075493;28;20863;-60
2023/12/12 10:41:52;;;;;;;3.00;1.97;;;;;;;;;;5075414;28;20805;-60
2023/12/12 10:44:21;;;;;;;3.60;2.17;;;;;;;;;;5075603;28;20534;-64
2023/12/12 10:46:50;;;;;;;4.20;2.00;;;;;;;;;;5075486;28;20439;-61
2023/12/12 10:49:17;;;;;;;2.20;2.00;;;;;;;;;;5075378;28;20534;-61
2023/12/12 10:51:46;;;;;;;2.60;2.27;;;;;;;;;;5075581;28;20475;-63
2023/12/12 10:54:13;;;;;;;2.40;2.20;;;;;;;;;;5074820;28;20440;-58
2023/12/12 10:56:40;;;;;;;2.73;1.93;;;;;;;;;;5075314;28;20483;-62
2023/12/12 10:59:09;;;;;;;3.83;2.10;;;;;;;;;;5074753;28;20454;-60
2023/12/12 11:01:36;;;;;;;5.63;2.40;;;;;;;;;;5074856;28;20447;-62
2023/12/12 11:04:05;;;;;;;2.87;2.00;;;;;;;;;;5075070;28;20482;-61
2023/12/12 11:06:32;;;;;;;6.97;2.77;;;;;;;;;;5075050;28;20505;-62
2023/12/12 11:08:59;;;;;;;4.27;2.70;;;;;;;;;;5074852;28;20546;-60
2023/12/12 11:11:27;;;;;;;3.87;2.20;;;;;;;;;;5074978;28;20443;-58
2023/12/12 11:13:54;;;;;;;3.23;2.53;;;;;;;;;;5074986;28;20530;-60
2023/12/12 11:16:22;;;;;;;3.73;2.73;;;;;;;;;;5074788;28;20997;-60
2023/12/12 11:18:49;;;;;;;3.67;2.43;;;;;;;;;;5074802;28;20450;-61
2023/12/12 11:21:34;;;;;;;6.43;2.50;;;;;;;;;;5074538;28;20530;-62
2023/12/12 11:24:01;;;;;;;3.27;2.87;;;;;;;;;;5074487;28;20443;-62
2023/12/12 11:26:28;;;;;;;9.43;4.00;;;;;;;;;;5074615;28;20454;-61
2023/12/12 11:28:56;;;;;;;3.23;2.53;;;;;;;;;;5074698;28;20475;-63
2023/12/12 11:31:26;;;;;;;4.67;3.77;;;;;;;;;;5074503;28;20451;-60
2023/12/12 11:34:04;;;;;;;3.20;3.00;;;;;;;;;;5074144;28;20930;-54
2023/12/12 11:36:48;;;;;;;4.57;2.80;;;;;;;;;;5074508;28;20519;-58
2023/12/12 11:39:15;;;;;;;3.20;2.80;;;;;;;;;;5074193;28;20459;-60
2023/12/12 11:41:43;;;;;;;5.40;2.60;;;;;;;;;;5074297;28;20458;-60
2023/12/12 11:44:11;;;;;;;3.40;2.47;;;;;;;;;;5074105;28;20447;-60
2023/12/12 11:46:39;;;;;;;2.50;2.30;;;;;;;;;;5074204;28;20527;-60
2023/12/12 11:49:18;;;;;;;5.10;2.97;;;;;;;;;;5074243;28;20534;-60
2023/12/12 11:51:46;;;;;;;7.70;3.17;;;;;;;;;;5074136;28;20442;-58
2023/12/12 11:54:19;;;;;;;3.23;2.30;;;;;;;;;;5073883;28;20506;-61
2023/12/12 11:56:46;;;;;;;3.50;2.63;;;;;;;;;;5073651;28;20493;-61
2023/12/12 11:59:13;;;;;;;4.53;2.53;;;;;;;;;;5074087;28;20443;-60
2023/12/12 12:01:41;;;;;;;3.60;2.30;;;;;;;;;;5073996;28;20788;-60
2023/12/12 12:04:08;;;;;;;3.93;2.83;;;;;;;;;;5073919;28;20526;-60
2023/12/12 12:06:35;;;;;;;4.23;2.67;;;;;;;;;;5073756;28;20443;-60
2023/12/12 12:09:03;;;;;;;5.20;2.97;;;;;;;;;;5073636;28;20877;-60
2023/12/12 12:11:37;;;;;;;6.30;3.17;;;;;;;;;;5073656;28;20446;-61
2023/12/12 12:14:04;;;;;;;5.73;3.07;;;;;;;;;;5073784;28;20538;-60
2023/12/12 12:16:31;;;;;;;4.20;2.80;;;;;;;;;;5073564;28;20491;-59
2023/12/12 12:18:59;;;;;;;3.77;2.77;;;;;;;;;;5073596;28;20536;-61
2023/12/12 12:21:27;;;;;;;4.50;2.40;;;;;;;;;;5073746;28;20442;-58
2023/12/12 12:23:55;;;;;;;6.50;3.23;;;;;;;;;;5073392;28;20531;-61
2023/12/12 12:26:22;;;;;;;5.43;3.30;;;;;;;;;;5073521;28;20811;-61
2023/12/12 12:28:49;;;;;;;5.03;2.93;;;;;;;;;;5073469;28;20447;-60
2023/12/12 12:31:27;;;;;;;3.13;2.60;;;;;;;;;;5073294;28;20478;-60
2023/12/12 12:33:54;;;;;;;3.73;2.90;;;;;;;;;;5073009;28;21009;-59
2023/12/12 12:36:22;;;;;;;3.30;2.90;;;;;;;;;;5073111;28;20481;-61
2023/12/12 12:38:49;;;;;;;4.40;2.77;;;;;;;;;;5073012;28;20458;-61
2023/12/12 12:41:23;;;;;;;4.13;2.30;;;;;;;;;;5073352;28;20451;-61
2023/12/12 12:43:52;;;;;;;4.27;2.77;;;;;;;;;;5073226;28;20522;-60
2023/12/12 12:46:19;;;;;;;6.10;5.03;;;;;;;;;;5072358;28;20446;-60
2023/12/12 12:48:46;;;;;;;6.33;3.73;;;;;;;;;;5073032;28;20530;-61
2023/12/12 12:51:13;;;;;;;6.83;2.70;;;;;;;;;;5072995;28;20927;-59
2023/12/12 12:53:43;;;;;;;2.57;2.37;;;;;;;;;;5073176;28;20443;-60
2023/12/12 12:56:11;;;;;;;7.13;2.40;;;;;;;;;;5072937;28;20488;-61
2023/12/12 12:58:39;;;;;;;3.87;2.60;;;;;;;;;;5072976;28;20447;-61
2023/12/12 13:01:06;;;;;;;4.90;2.47;;;;;;;;;;5072819;28;20451;-61
2023/12/12 13:03:33;;;;;;;4.10;2.50;;;;;;;;;;5072923;28;20497;-61
2023/12/12 13:06:00;;;;;;;3.67;2.33;;;;;;;;;;5073114;28;20451;-60
2023/12/12 13:08:27;;;;;;;3.73;2.53;;;;;;;;;;5073133;28;20443;-61
2023/12/12 13:10:56;;;;;;;3.93;2.23;;;;;;;;;;5072957;28;20546;-59
2023/12/12 13:13:23;;;;;;;5.07;2.60;;;;;;;;;;5073234;28;20451;-59
2023/12/12 13:15:50;;;;;;;4.73;3.03;;;;;;;;;;5072617;28;20554;-63
2023/12/12 13:18:18;;;;;;;2.20;2.10;;;;;;;;;;5073155;28;20923;-60
2023/12/12 13:20:45;;;;;;;3.60;1.83;;;;;;;;;;5072858;28;20792;-61
2023/12/12 13:23:12;;;;;;;5.53;2.00;;;;;;;;;;5072820;28;20446;-61
2023/12/12 13:25:39;;;;;;;3.73;2.37;;;;;;;;;;5072814;28;20451;-61
2023/12/12 13:28:07;;;;;;;7.23;2.67;;;;;;;;;;5072668;28;20867;-61
2023/12/12 13:30:34;;;;;;;3.27;2.27;;;;;;;;;;5072619;28;20439;-60
2023/12/12 13:33:03;;;;;;;2.10;2.00;;;;;;;;;;5072578;28;20523;-61
2023/12/12 13:35:31;;;;;;;2.70;2.13;;;;;;;;;;5072706;28;20471;-62
2023/12/12 13:37:58;;;;;;;3.90;2.17;;;;;;;;;;5072528;28;20988;-61
2023/12/12 13:40:25;;;;;;;3.60;2.00;;;;;;;;;;5072602;28;20446;-61
2023/12/12 13:42:52;;;;;;;2.37;2.00;;;;;;;;;;5072346;28;20450;-61
2023/12/12 13:45:20;;;;;;;3.60;1.90;;;;;;;;;;5072646;28;20471;-62
2023/12/12 13:47:47;;;;;;;3.77;2.60;;;;;;;;;;5072615;28;20542;-60
2023/12/12 13:50:14;;;;;;;2.17;1.97;;;;;;;;;;5072279;28;20450;-61
2023/12/12 13:52:41;;;;;;;2.20;2.00;;;;;;;;;;5072256;28;20443;-60
2023/12/12 13:55:09;;;;;;;3.03;2.10;;;;;;;;;;5072413;28;20478;-60
2023/12/12 13:57:36;;;;;;;2.73;2.00;;;;;;;;;;5073940;28;20566;-60
2023/12/12 14:00:04;;;;;;;2.20;2.00;;;;;;;;;;5074569;28;20534;-60
2023/12/12 14:02:32;;;;;;;3.13;2.10;;;;;;;;;;5074233;28;20562;-60
2023/12/12 14:05:01;;;;;;;3.47;1.90;;;;;;;;;;5074259;28;20965;-60
2023/12/12 14:07:28;;;;;;;1.70;1.60;;;;;;;;;;5074137;28;20443;-60
2023/12/12 14:09:55;;;;;;;2.37;2.17;;;;;;;;;;5074286;28;20438;-61
2023/12/12 14:12:22;;;;;;;1.67;1.57;;;;;;;;;;5074311;28;21081;-61
2023/12/12 14:14:49;;;;;;;1.70;1.60;;;;;;;;;;5076004;28;20534;-60
2023/12/12 14:17:16;;;;;;;1.53;1.43;;;;;;;;;;5075791;28;20479;-60
2023/12/12 14:19:44;;;;;;;2.57;2.37;;;;;;;;;;5075781;28;20927;-60
2023/12/12 14:22:11;;;;;;;3.80;2.60;;;;;;;;;;5075858;28;20535;-60
2023/12/12 14:24:38;;;;;;;1.80;1.70;;;;;;;;;;5075689;28;20483;-60
2023/12/12 14:27:06;;;;;;;3.30;2.40;;;;;;;;;;5075956;28;20453;-60
2023/12/12 14:29:33;;;;;;;4.50;2.50;;;;;;;;;;5075564;28;20945;-60
2023/12/12 14:32:00;;;;;;;3.33;2.00;;;;;;;;;;5075744;28;20550;-60
2023/12/12 14:34:27;;;;;;;2.23;1.97;;;;;;;;;;5075681;28;20490;-60
2023/12/12 14:36:55;;;;;;;3.90;1.87;;;;;;;;;;5075539;28;20485;-60
2023/12/12 14:39:22;;;;;;;2.90;1.90;;;;;;;;;;5075453;28;20542;-60
2023/12/12 14:41:49;;;;;;;1.53;1.40;;;;;;;;;;5075632;28;20509;-60
2023/12/12 14:44:16;;;;;;;1.80;1.70;;;;;;;;;;5075594;28;20454;-60